Egham, United Kingdom
Current Conditions -  °F | °C
As of 7:20 AM on Saturday 20 Dec 2014 (Local Time) from EGLL Reporting Station
Scattered Clouds Scattered Clouds  
Wind Chill:   Ceiling: Unl
Heat Index:   Visibility: 6mi
Dew Point:   Wind: 12mph
Humidity: 81%   Direction: 240°WSW
Pressure: 30.24"   Gusts: NA
Location:  51.43°N, 0.55°W
Report Text: EGLL 200720Z 24010KT 9999 FEW040 SCT048 06/03 Q1024
Loading
Personal Weather Stations






























Interactive Weather Map New forecast layout! Learn more

10-Day Weather Forecast

Advertisements
Track Severe Weather on mobile